sensor_id;sensor_type;location;lat;lon;timestamp;pressure;altitude;pressure_sealevel;temperature;humidity
65376;BME280;51976;47.332;9.404;2023-05-01T00:01:16;92553.19;;;10.91;78.78
65376;BME280;51976;47.332;9.404;2023-05-01T00:03:41;92532.16;;;10.69;79.14
65376;BME280;51976;47.332;9.404;2023-05-01T00:06:07;92550.31;;;10.82;79.35
65376;BME280;51976;47.332;9.404;2023-05-01T00:08:33;92542.00;;;10.79;79.19
65376;BME280;51976;47.332;9.404;2023-05-01T00:11:04;92540.69;;;10.76;79.40
65376;BME280;51976;47.332;9.404;2023-05-01T00:13:30;92533.41;;;10.58;79.69
65376;BME280;51976;47.332;9.404;2023-05-01T00:15:56;92545.84;;;10.73;79.48
65376;BME280;51976;47.332;9.404;2023-05-01T00:18:21;92542.59;;;10.76;79.38
65376;BME280;51976;47.332;9.404;2023-05-01T00:20:47;92517.50;;;10.57;79.13
65376;BME280;51976;47.332;9.404;2023-05-01T00:23:12;92541.13;;;10.65;80.18
65376;BME280;51976;47.332;9.404;2023-05-01T00:25:38;92545.28;;;10.57;79.97
65376;BME280;51976;47.332;9.404;2023-05-01T00:28:04;92527.84;;;10.49;80.04
65376;BME280;51976;47.332;9.404;2023-05-01T00:30:31;92533.50;;;10.48;80.52
65376;BME280;51976;47.332;9.404;2023-05-01T00:32:57;92503.72;;;10.39;79.98
65376;BME280;51976;47.332;9.404;2023-05-01T00:35:23;92528.81;;;10.59;79.99
65376;BME280;51976;47.332;9.404;2023-05-01T00:37:49;92540.63;;;10.63;79.75
65376;BME280;51976;47.332;9.404;2023-05-01T00:40:14;92512.34;;;10.60;79.34
65376;BME280;51976;47.332;9.404;2023-05-01T00:42:40;92513.88;;;10.66;78.96
65376;BME280;51976;47.332;9.404;2023-05-01T00:45:06;92514.19;;;10.65;78.89
65376;BME280;51976;47.332;9.404;2023-05-01T00:47:34;92517.00;;;10.55;79.60
65376;BME280;51976;47.332;9.404;2023-05-01T00:50:00;92505.13;;;10.56;79.40
65376;BME280;51976;47.332;9.404;2023-05-01T00:52:25;92514.81;;;10.57;79.53
65376;BME280;51976;47.332;9.404;2023-05-01T00:54:51;92504.69;;;10.67;79.60
65376;BME280;51976;47.332;9.404;2023-05-01T00:57:19;92483.06;;;10.54;79.62
65376;BME280;51976;47.332;9.404;2023-05-01T00:59:44;92516.19;;;10.73;79.17
65376;BME280;51976;47.332;9.404;2023-05-01T01:02:10;92486.13;;;10.66;79.14
65376;BME280;51976;47.332;9.404;2023-05-01T01:04:37;92477.72;;;10.48;79.52
65376;BME280;51976;47.332;9.404;2023-05-01T01:07:07;92485.69;;;10.59;79.55
65376;BME280;51976;47.332;9.404;2023-05-01T01:10:01;92472.78;;;10.56;79.63
65376;BME280;51976;47.332;9.404;2023-05-01T01:12:45;92494.63;;;10.73;79.41
65376;BME280;51976;47.332;9.404;2023-05-01T01:15:28;92496.31;;;10.69;80.11
65376;BME280;51976;47.332;9.404;2023-05-01T01:18:15;92474.09;;;10.58;80.19
65376;BME280;51976;47.332;9.404;2023-05-01T01:20:47;92484.59;;;10.78;80.11
65376;BME280;51976;47.332;9.404;2023-05-01T01:23:52;92490.25;;;10.77;80.32
65376;BME280;51976;47.332;9.404;2023-05-01T01:26:43;92474.31;;;10.62;80.17
65376;BME280;51976;47.332;9.404;2023-05-01T01:29:25;92487.94;;;10.70;80.32
65376;BME280;51976;47.332;9.404;2023-05-01T01:32:08;92483.72;;;10.64;80.59
65376;BME280;51976;47.332;9.404;2023-05-01T01:34:43;92479.25;;;10.73;80.19
65376;BME280;51976;47.332;9.404;2023-05-01T01:37:18;92477.38;;;10.74;80.35
65376;BME280;51976;47.332;9.404;2023-05-01T01:39:52;92480.56;;;10.76;80.21
65376;BME280;51976;47.332;9.404;2023-05-01T01:42:22;92480.13;;;10.69;80.23
65376;BME280;51976;47.332;9.404;2023-05-01T01:44:53;92491.00;;;10.64;80.38
65376;BME280;51976;47.332;9.404;2023-05-01T01:47:21;92465.72;;;10.60;80.18
65376;BME280;51976;47.332;9.404;2023-05-01T01:49:50;92453.03;;;10.41;80.30
65376;BME280;51976;47.332;9.404;2023-05-01T01:52:17;92482.31;;;10.48;80.89
65376;BME280;51976;47.332;9.404;2023-05-01T01:54:50;92478.06;;;10.42;81.36
65376;BME280;51976;47.332;9.404;2023-05-01T01:57:18;92484.44;;;10.51;81.14
65376;BME280;51976;47.332;9.404;2023-05-01T01:59:45;92466.22;;;10.43;80.88
65376;BME280;51976;47.332;9.404;2023-05-01T02:02:13;92461.84;;;10.47;81.05
65376;BME280;51976;47.332;9.404;2023-05-01T02:04:41;92467.00;;;10.43;80.96
65376;BME280;51976;47.332;9.404;2023-05-01T02:07:07;92466.22;;;10.43;80.94
65376;BME280;51976;47.332;9.404;2023-05-01T02:09:34;92454.44;;;10.39;81.05
65376;BME280;51976;47.332;9.404;2023-05-01T02:12:01;92477.78;;;10.43;80.79
65376;BME280;51976;47.332;9.404;2023-05-01T02:14:30;92433.97;;;10.14;81.09
65376;BME280;51976;47.332;9.404;2023-05-01T02:16:56;92469.78;;;10.38;81.29
65376;BME280;51976;47.332;9.404;2023-05-01T02:19:23;92471.53;;;10.48;81.14
65376;BME280;51976;47.332;9.404;2023-05-01T02:21:50;92472.84;;;10.50;81.31
65376;BME280;51976;47.332;9.404;2023-05-01T02:24:16;92467.47;;;10.50;80.94
65376;BME280;51976;47.332;9.404;2023-05-01T02:26:48;92467.09;;;10.38;81.43
65376;BME280;51976;47.332;9.404;2023-05-01T02:29:16;92430.50;;;9.90;82.33
65376;BME280;51976;47.332;9.404;2023-05-01T02:31:41;92462.69;;;10.24;82.42
65376;BME280;51976;47.332;9.404;2023-05-01T02:34:06;92464.09;;;10.40;81.96
65376;BME280;51976;47.332;9.404;2023-05-01T02:36:32;92469.78;;;10.38;82.09
65376;BME280;51976;47.332;9.404;2023-05-01T02:38:59;92457.47;;;10.32;82.39
65376;BME280;51976;47.332;9.404;2023-05-01T02:41:25;92426.28;;;9.83;82.96
65376;BME280;51976;47.332;9.404;2023-05-01T02:43:57;92463.72;;;10.04;82.99
65376;BME280;51976;47.332;9.404;2023-05-01T02:46:26;92446.66;;;9.90;83.07
65376;BME280;51976;47.332;9.404;2023-05-01T02:48:52;92463.09;;;10.12;82.66
65376;BME280;51976;47.332;9.404;2023-05-01T02:51:19;92463.59;;;10.14;82.63
65376;BME280;51976;47.332;9.404;2023-05-01T02:53:47;92454.28;;;10.06;83.11
65376;BME280;51976;47.332;9.404;2023-05-01T02:56:13;92438.75;;;9.98;83.06
65376;BME280;51976;47.332;9.404;2023-05-01T02:58:39;92434.28;;;9.89;83.62
65376;BME280;51976;47.332;9.404;2023-05-01T03:01:05;92461.56;;;10.06;83.70
65376;BME280;51976;47.332;9.404;2023-05-01T03:03:31;92449.13;;;10.10;83.05
65376;BME280;51976;47.332;9.404;2023-05-01T03:05:56;92455.50;;;10.14;82.71
65376;BME280;51976;47.332;9.404;2023-05-01T03:08:22;92458.44;;;10.17;82.65
65376;BME280;51976;47.332;9.404;2023-05-01T03:10:48;92459.00;;;10.14;82.73
65376;BME280;51976;47.332;9.404;2023-05-01T03:13:13;92447.50;;;10.09;82.98
65376;BME280;51976;47.332;9.404;2023-05-01T03:15:38;92445.97;;;10.03;83.34
65376;BME280;51976;47.332;9.404;2023-05-01T03:18:04;92424.59;;;9.88;83.48
65376;BME280;51976;47.332;9.404;2023-05-01T03:20:30;92447.91;;;9.97;83.59
65376;BME280;51976;47.332;9.404;2023-05-01T03:22:56;92446.13;;;10.11;83.05
65376;BME280;51976;47.332;9.404;2023-05-01T03:25:21;92429.47;;;10.09;82.50
65376;BME280;51976;47.332;9.404;2023-05-01T03:27:47;92431.69;;;10.02;82.61
65376;BME280;51976;47.332;9.404;2023-05-01T03:30:13;92445.50;;;9.96;82.93
65376;BME280;51976;47.332;9.404;2023-05-01T03:32:39;92442.75;;;10.01;82.78
65376;BME280;51976;47.332;9.404;2023-05-01T03:35:04;92418.53;;;10.01;82.21
65376;BME280;51976;47.332;9.404;2023-05-01T03:37:30;92426.47;;;10.11;81.53
65376;BME280;51976;47.332;9.404;2023-05-01T03:39:55;92448.31;;;10.09;81.77
65376;BME280;51976;47.332;9.404;2023-05-01T03:42:21;92424.97;;;9.81;82.64
65376;BME280;51976;47.332;9.404;2023-05-01T03:44:46;92409.63;;;9.81;82.82
65376;BME280;51976;47.332;9.404;2023-05-01T03:47:12;92423.00;;;9.87;82.73
65376;BME280;51976;47.332;9.404;2023-05-01T03:49:37;92420.53;;;9.90;82.85
65376;BME280;51976;47.332;9.404;2023-05-01T03:52:02;92438.28;;;9.91;83.31
65376;BME280;51976;47.332;9.404;2023-05-01T03:54:28;92441.84;;;9.87;83.51
65376;BME280;51976;47.332;9.404;2023-05-01T03:56:53;92427.38;;;9.82;83.09
65376;BME280;51976;47.332;9.404;2023-05-01T03:59:19;92440.97;;;9.91;83.39
65376;BME280;51976;47.332;9.404;2023-05-01T04:01:44;92431.16;;;9.81;83.49
65376;BME280;51976;47.332;9.404;2023-05-01T04:04:10;92445.84;;;9.89;83.62
65376;BME280;51976;47.332;9.404;2023-05-01T04:06:35;92433.84;;;9.81;83.50
65376;BME280;51976;47.332;9.404;2023-05-01T04:09:01;92444.66;;;10.00;83.42
65376;BME280;51976;47.332;9.404;2023-05-01T04:11:27;92437.94;;;9.98;82.98
65376;BME280;51976;47.332;9.404;2023-05-01T04:13:52;92414.53;;;9.74;83.07
65376;BME280;51976;47.332;9.404;2023-05-01T04:16:18;92445.84;;;9.89;83.23
65376;BME280;51976;47.332;9.404;2023-05-01T04:18:43;92439.16;;;9.87;83.23
65376;BME280;51976;47.332;9.404;2023-05-01T04:21:09;92426.91;;;9.75;83.58
65376;BME280;51976;47.332;9.404;2023-05-01T04:23:34;92439.16;;;9.87;83.45
65376;BME280;51976;47.332;9.404;2023-05-01T04:25:59;92437.38;;;10.01;83.20
65376;BME280;51976;47.332;9.404;2023-05-01T04:28:25;92439.44;;;10.09;82.77
65376;BME280;51976;47.332;9.404;2023-05-01T04:30:51;92425.00;;;10.00;82.36
65376;BME280;51976;47.332;9.404;2023-05-01T04:33:17;92441.97;;;10.00;82.47
65376;BME280;51976;47.332;9.404;2023-05-01T04:35:42;92444.13;;;9.98;82.38
65376;BME280;51976;47.332;9.404;2023-05-01T04:38:08;92413.75;;;9.74;82.54
65376;BME280;51976;47.332;9.404;2023-05-01T04:40:34;92443.00;;;9.80;82.91
65376;BME280;51976;47.332;9.404;2023-05-01T04:43:00;92422.63;;;9.74;82.80
65376;BME280;51976;47.332;9.404;2023-05-01T04:45:25;92432.81;;;9.77;82.71
65376;BME280;51976;47.332;9.404;2023-05-01T04:47:51;92433.94;;;9.71;82.82
65376;BME280;51976;47.332;9.404;2023-05-01T04:50:16;92449.34;;;9.66;83.79
65376;BME280;51976;47.332;9.404;2023-05-01T04:52:42;92447.88;;;9.55;84.35
65376;BME280;51976;47.332;9.404;2023-05-01T04:55:08;92420.81;;;9.41;84.65
65376;BME280;51976;47.332;9.404;2023-05-01T04:57:34;92455.34;;;9.58;84.31
65376;BME280;51976;47.332;9.404;2023-05-01T05:00:00;92443.09;;;9.46;84.36
65376;BME280;51976;47.332;9.404;2023-05-01T05:02:25;92452.97;;;9.56;84.41
65376;BME280;51976;47.332;9.404;2023-05-01T05:04:50;92449.81;;;9.49;84.95
65376;BME280;51976;47.332;9.404;2023-05-01T05:07:18;92461.38;;;9.49;84.60
65376;BME280;51976;47.332;9.404;2023-05-01T05:09:43;92443.94;;;9.42;84.66
65376;BME280;51976;47.332;9.404;2023-05-01T05:12:08;92455.13;;;10.02;82.36
65376;BME280;51976;47.332;9.404;2023-05-01T05:14:34;92442.78;;;10.62;79.52
65376;BME280;51976;47.332;9.404;2023-05-01T05:16:59;92433.50;;;10.68;78.37
65376;BME280;51976;47.332;9.404;2023-05-01T05:19:25;92425.63;;;10.91;77.00
65376;BME280;51976;47.332;9.404;2023-05-01T05:21:50;92462.09;;;11.21;76.43
65376;BME280;51976;47.332;9.404;2023-05-01T05:24:15;92420.69;;;10.79;76.66
65376;BME280;51976;47.332;9.404;2023-05-01T05:26:41;92458.41;;;11.30;75.78
65376;BME280;51976;47.332;9.404;2023-05-01T05:29:06;92469.50;;;10.59;78.49
65376;BME280;51976;47.332;9.404;2023-05-01T05:31:32;92469.28;;;10.36;79.07
65376;BME280;51976;47.332;9.404;2023-05-01T05:33:57;92440.81;;;10.06;79.94
65376;BME280;51976;47.332;9.404;2023-05-01T05:36:22;92441.13;;;9.81;81.11
65376;BME280;51976;47.332;9.404;2023-05-01T05:38:49;92471.16;;;9.88;81.64
65376;BME280;51976;47.332;9.404;2023-05-01T05:41:14;92476.44;;;9.74;82.59
65376;BME280;51976;47.332;9.404;2023-05-01T05:43:40;92467.34;;;9.70;82.63
65376;BME280;51976;47.332;9.404;2023-05-01T05:46:06;92459.75;;;9.48;83.47
65376;BME280;51976;47.332;9.404;2023-05-01T05:48:31;92436.63;;;9.47;83.25
65376;BME280;51976;47.332;9.404;2023-05-01T05:50:57;92461.53;;;9.58;83.68
65376;BME280;51976;47.332;9.404;2023-05-01T05:53:22;92425.81;;;9.29;83.94
65376;BME280;51976;47.332;9.404;2023-05-01T05:55:48;92453.69;;;9.38;84.02
65376;BME280;51976;47.332;9.404;2023-05-01T05:58:14;92477.94;;;9.33;84.54
65376;BME280;51976;47.332;9.404;2023-05-01T06:00:47;92449.91;;;9.10;85.30
65376;BME280;51976;47.332;9.404;2023-05-01T06:03:13;92458.66;;;9.26;85.24
65376;BME280;51976;47.332;9.404;2023-05-01T06:05:38;92476.72;;;9.20;86.00
65376;BME280;51976;47.332;9.404;2023-05-01T06:08:04;92478.91;;;9.13;86.18
65376;BME280;51976;47.332;9.404;2023-05-01T06:10:29;92479.19;;;9.11;86.23
65376;BME280;51976;47.332;9.404;2023-05-01T06:12:55;92475.91;;;9.20;86.38
65376;BME280;51976;47.332;9.404;2023-05-01T06:15:21;92480.75;;;9.18;86.19
65376;BME280;51976;47.332;9.404;2023-05-01T06:17:48;92482.34;;;9.24;86.11
65376;BME280;51976;47.332;9.404;2023-05-01T06:20:14;92481.13;;;9.06;86.71
65376;BME280;51976;47.332;9.404;2023-05-01T06:22:40;92473.56;;;9.08;87.54
65376;BME280;51976;47.332;9.404;2023-05-01T06:25:06;92477.44;;;8.97;87.80
65376;BME280;51976;47.332;9.404;2023-05-01T06:27:32;92482.16;;;9.10;87.07
65376;BME280;51976;47.332;9.404;2023-05-01T06:29:57;92485.09;;;9.13;87.22
65376;BME280;51976;47.332;9.404;2023-05-01T06:32:23;92478.25;;;8.97;87.70
65376;BME280;51976;47.332;9.404;2023-05-01T06:34:48;92483.06;;;9.00;88.00
65376;BME280;51976;47.332;9.404;2023-05-01T06:37:13;92484.84;;;9.10;87.60
65376;BME280;51976;47.332;9.404;2023-05-01T06:39:39;92463.72;;;8.98;87.79
65376;BME280;51976;47.332;9.404;2023-05-01T06:42:04;92480.00;;;9.12;87.73
65376;BME280;51976;47.332;9.404;2023-05-01T06:44:31;92488.84;;;9.18;87.41
65376;BME280;51976;47.332;9.404;2023-05-01T06:46:57;92487.22;;;9.16;87.48
65376;BME280;51976;47.332;9.404;2023-05-01T06:49:25;92485.66;;;9.10;87.82
65376;BME280;51976;47.332;9.404;2023-05-01T06:51:51;92489.31;;;9.25;87.52
65376;BME280;51976;47.332;9.404;2023-05-01T06:54:17;92488.06;;;9.12;87.70
65376;BME280;51976;47.332;9.404;2023-05-01T06:56:43;92489.47;;;9.04;88.17
65376;BME280;51976;47.332;9.404;2023-05-01T06:59:13;92491.84;;;9.11;88.19
65376;BME280;51976;47.332;9.404;2023-05-01T07:01:38;92479.94;;;9.22;87.92
65376;BME280;51976;47.332;9.404;2023-05-01T07:04:04;92496.91;;;9.18;87.35
65376;BME280;51976;47.332;9.404;2023-05-01T07:06:30;92465.66;;;8.93;87.78
65376;BME280;51976;47.332;9.404;2023-05-01T07:08:57;92488.63;;;9.09;88.03
65376;BME280;51976;47.332;9.404;2023-05-01T07:11:22;92490.22;;;9.10;88.24
65376;BME280;51976;47.332;9.404;2023-05-01T07:13:48;92498.53;;;9.13;87.70
65376;BME280;51976;47.332;9.404;2023-05-01T07:16:13;92444.53;;;8.76;87.93
65376;BME280;51976;47.332;9.404;2023-05-01T07:18:39;92461.84;;;8.99;87.84
65376;BME280;51976;47.332;9.404;2023-05-01T07:21:05;92492.47;;;9.32;87.81
65376;BME280;51976;47.332;9.404;2023-05-01T07:23:31;92426.25;;;8.78;88.24
65376;BME280;51976;47.332;9.404;2023-05-01T07:25:57;92455.66;;;8.98;88.35
65376;BME280;51976;47.332;9.404;2023-05-01T07:28:22;92491.63;;;9.36;87.67
65376;BME280;51976;47.332;9.404;2023-05-01T07:30:47;92498.31;;;9.39;88.23
65376;BME280;51976;47.332;9.404;2023-05-01T07:33:13;92500.41;;;9.47;87.42
65376;BME280;51976;47.332;9.404;2023-05-01T07:35:38;92462.31;;;9.35;87.42
65376;BME280;51976;47.332;9.404;2023-05-01T07:38:04;92494.94;;;9.57;87.09
65376;BME280;51976;47.332;9.404;2023-05-01T07:40:31;92496.59;;;9.53;87.29
65376;BME280;51976;47.332;9.404;2023-05-01T07:42:58;92479.22;;;9.40;87.90
65376;BME280;51976;47.332;9.404;2023-05-01T07:45:23;92486.88;;;9.57;88.27
65376;BME280;51976;47.332;9.404;2023-05-01T07:47:49;92504.75;;;9.72;87.90
65376;BME280;51976;47.332;9.404;2023-05-01T07:50:16;92497.66;;;9.81;86.96
65376;BME280;51976;47.332;9.404;2023-05-01T07:52:41;92506.66;;;9.66;85.83
65376;BME280;51976;47.332;9.404;2023-05-01T07:55:07;92496.84;;;9.80;85.31
65376;BME280;51976;47.332;9.404;2023-05-01T07:57:34;92475.94;;;9.72;85.69
65376;BME280;51976;47.332;9.404;2023-05-01T08:00:00;92501.31;;;9.90;85.40
65376;BME280;51976;47.332;9.404;2023-05-01T08:02:25;92500.63;;;10.03;85.67
65376;BME280;51976;47.332;9.404;2023-05-01T08:04:51;92456.09;;;9.63;83.78
65376;BME280;51976;47.332;9.404;2023-05-01T08:07:17;92476.41;;;9.79;84.41
65376;BME280;51976;47.332;9.404;2023-05-01T08:09:42;92483.53;;;9.89;85.11
65376;BME280;51976;47.332;9.404;2023-05-01T08:12:07;92485.72;;;9.87;84.86
65376;BME280;51976;47.332;9.404;2023-05-01T08:14:33;92467.06;;;9.72;81.37
65376;BME280;51976;47.332;9.404;2023-05-01T08:16:59;92515.78;;;10.18;81.85
65376;BME280;51976;47.332;9.404;2023-05-01T08:19:24;92425.69;;;9.63;80.21
65376;BME280;51976;47.332;9.404;2023-05-01T08:21:52;92516.34;;;10.20;79.09
65376;BME280;51976;47.332;9.404;2023-05-01T08:24:17;92515.03;;;10.12;79.45
65376;BME280;51976;47.332;9.404;2023-05-01T08:26:43;92522.56;;;10.15;79.80
65376;BME280;51976;47.332;9.404;2023-05-01T08:29:09;92509.28;;;10.24;78.71
65376;BME280;51976;47.332;9.404;2023-05-01T08:31:34;92516.28;;;10.25;78.64
65376;BME280;51976;47.332;9.404;2023-05-01T08:34:02;92516.22;;;10.30;78.52
65376;BME280;51976;47.332;9.404;2023-05-01T08:36:27;92494.31;;;10.13;77.25
65376;BME280;51976;47.332;9.404;2023-05-01T08:38:53;92443.81;;;9.81;78.87
65376;BME280;51976;47.332;9.404;2023-05-01T08:41:20;92527.59;;;10.27;78.04
65376;BME280;51976;47.332;9.404;2023-05-01T08:43:47;92533.50;;;10.29;78.03
65376;BME280;51976;47.332;9.404;2023-05-01T08:46:14;92529.28;;;10.42;78.04
65376;BME280;51976;47.332;9.404;2023-05-01T08:48:42;92492.56;;;10.27;77.61
65376;BME280;51976;47.332;9.404;2023-05-01T08:51:09;92520.00;;;10.29;78.20
65376;BME280;51976;47.332;9.404;2023-05-01T08:53:34;92507.41;;;10.25;78.25
65376;BME280;51976;47.332;9.404;2023-05-01T08:56:05;92460.63;;;9.92;77.96
65376;BME280;51976;47.332;9.404;2023-05-01T08:58:32;92524.13;;;10.45;77.25
65376;BME280;51976;47.332;9.404;2023-05-01T09:01:01;92531.09;;;10.46;77.50
65376;BME280;51976;47.332;9.404;2023-05-01T09:03:30;92488.72;;;10.33;77.32
65376;BME280;51976;47.332;9.404;2023-05-01T09:05:57;92493.25;;;10.38;77.70
65376;BME280;51976;47.332;9.404;2023-05-01T09:08:23;92504.31;;;10.36;77.54
65376;BME280;51976;47.332;9.404;2023-05-01T09:10:49;92541.88;;;10.46;76.57
65376;BME280;51976;47.332;9.404;2023-05-01T09:13:16;92501.44;;;10.28;76.82
65376;BME280;51976;47.332;9.404;2023-05-01T09:15:41;92511.19;;;10.24;75.39
65376;BME280;51976;47.332;9.404;2023-05-01T09:18:07;92553.19;;;10.48;74.89
65376;BME280;51976;47.332;9.404;2023-05-01T09:20:35;92453.63;;;9.91;74.72
65376;BME280;51976;47.332;9.404;2023-05-01T09:23:01;92546.97;;;10.29;75.10
65376;BME280;51976;47.332;9.404;2023-05-01T09:25:28;92513.66;;;10.15;75.24
65376;BME280;51976;47.332;9.404;2023-05-01T09:27:53;92550.16;;;10.31;75.01
65376;BME280;51976;47.332;9.404;2023-05-01T09:30:36;92511.50;;;10.17;75.83
65376;BME280;51976;47.332;9.404;2023-05-01T09:33:12;92552.59;;;10.51;75.09
65376;BME280;51976;47.332;9.404;2023-05-01T09:35:54;92559.53;;;10.58;75.76
65376;BME280;51976;47.332;9.404;2023-05-01T09:38:22;92558.22;;;10.55;75.12
65376;BME280;51976;47.332;9.404;2023-05-01T09:40:48;92536.53;;;10.23;75.24
65376;BME280;51976;47.332;9.404;2023-05-01T09:43:23;92559.66;;;10.47;75.32
65376;BME280;51976;47.332;9.404;2023-05-01T09:46:02;92532.91;;;10.32;75.13
65376;BME280;51976;47.332;9.404;2023-05-01T09:48:29;92553.63;;;10.56;74.60
65376;BME280;51976;47.332;9.404;2023-05-01T09:50:55;92528.56;;;10.36;74.65
65376;BME280;51976;47.332;9.404;2023-05-01T09:53:34;92558.50;;;10.54;73.94
65376;BME280;51976;47.332;9.404;2023-05-01T09:56:00;92543.88;;;10.60;73.92
65376;BME280;51976;47.332;9.404;2023-05-01T09:58:27;92540.75;;;10.71;73.59
65376;BME280;51976;47.332;9.404;2023-05-01T10:00:52;92526.47;;;10.52;73.05
65376;BME280;51976;47.332;9.404;2023-05-01T10:03:18;92560.00;;;10.65;73.65
65376;BME280;51976;47.332;9.404;2023-05-01T10:05:43;92561.00;;;10.69;73.54
65376;BME280;51976;47.332;9.404;2023-05-01T10:08:09;92547.19;;;10.75;72.68
65376;BME280;51976;47.332;9.404;2023-05-01T10:10:39;92554.34;;;10.85;72.69
65376;BME280;51976;47.332;9.404;2023-05-01T10:13:15;92554.78;;;10.92;72.49
65376;BME280;51976;47.332;9.404;2023-05-01T10:15:40;92559.72;;;10.85;72.79
65376;BME280;51976;47.332;9.404;2023-05-01T10:18:09;92566.00;;;10.99;72.97
65376;BME280;51976;47.332;9.404;2023-05-01T10:20:34;92522.91;;;10.94;72.72
65376;BME280;51976;47.332;9.404;2023-05-01T10:23:01;92570.09;;;11.15;72.56
65376;BME280;51976;47.332;9.404;2023-05-01T10:25:28;92565.09;;;11.23;72.87
65376;BME280;51976;47.332;9.404;2023-05-01T10:27:54;92565.69;;;11.01;72.40
65376;BME280;51976;47.332;9.404;2023-05-01T10:30:21;92533.84;;;11.03;72.71
65376;BME280;51976;47.332;9.404;2023-05-01T10:32:47;92569.69;;;11.22;71.70
65376;BME280;51976;47.332;9.404;2023-05-01T10:35:14;92562.03;;;11.29;71.94
65376;BME280;51976;47.332;9.404;2023-05-01T10:37:47;92561.69;;;11.36;71.70
65376;BME280;51976;47.332;9.404;2023-05-01T10:40:45;92559.94;;;11.45;70.95
65376;BME280;51976;47.332;9.404;2023-05-01T10:43:18;92565.84;;;11.47;71.64
65376;BME280;51976;47.332;9.404;2023-05-01T10:45:46;92535.63;;;11.45;71.25
65376;BME280;51976;47.332;9.404;2023-05-01T10:48:36;92555.88;;;11.61;71.43
65376;BME280;51976;47.332;9.404;2023-05-01T10:51:13;92540.59;;;11.38;70.66
65376;BME280;51976;47.332;9.404;2023-05-01T10:53:43;92546.44;;;11.45;72.04
65376;BME280;51976;47.332;9.404;2023-05-01T10:59:10;92555.06;;;11.61;71.39
65376;BME280;51976;47.332;9.404;2023-05-01T11:01:41;92541.13;;;11.72;72.50
65376;BME280;51976;47.332;9.404;2023-05-01T11:04:44;92550.78;;;11.92;72.85
65376;BME280;51976;47.332;9.404;2023-05-01T11:07:14;92554.41;;;11.69;71.65
65376;BME280;51976;47.332;9.404;2023-05-01T11:09:41;92528.56;;;11.81;71.65
65376;BME280;51976;47.332;9.404;2023-05-01T11:12:09;92516.47;;;11.60;70.78
65376;BME280;51976;47.332;9.404;2023-05-01T11:15:01;92548.25;;;11.82;70.57
65376;BME280;51976;47.332;9.404;2023-05-01T11:17:44;92545.13;;;11.75;70.29
65376;BME280;51976;47.332;9.404;2023-05-01T11:20:12;92543.88;;;11.86;70.88
65376;BME280;51976;47.332;9.404;2023-05-01T11:22:39;92537.16;;;11.83;69.65
65376;BME280;51976;47.332;9.404;2023-05-01T11:25:21;92536.31;;;11.69;69.16
65376;BME280;51976;47.332;9.404;2023-05-01T11:27:48;92544.84;;;11.44;69.34
65376;BME280;51976;47.332;9.404;2023-05-01T11:30:14;92546.25;;;11.55;70.41
65376;BME280;51976;47.332;9.404;2023-05-01T11:32:43;92541.84;;;11.78;69.81
65376;BME280;51976;47.332;9.404;2023-05-01T11:35:24;92544.53;;;11.78;69.98
65376;BME280;51976;47.332;9.404;2023-05-01T11:37:54;92537.03;;;11.75;68.96
65376;BME280;51976;47.332;9.404;2023-05-01T11:40:27;92542.09;;;11.63;68.29
65376;BME280;51976;47.332;9.404;2023-05-01T11:43:01;92534.91;;;11.72;69.49
65376;BME280;51976;47.332;9.404;2023-05-01T11:45:28;92537.91;;;11.70;68.01
65376;BME280;51976;47.332;9.404;2023-05-01T11:47:53;92531.34;;;11.76;69.03
65376;BME280;51976;47.332;9.404;2023-05-01T11:50:20;92541.56;;;11.79;68.40
65376;BME280;51976;47.332;9.404;2023-05-01T11:52:49;92526.53;;;11.73;67.34
65376;BME280;51976;47.332;9.404;2023-05-01T11:55:29;92534.78;;;11.63;69.87
65376;BME280;51976;47.332;9.404;2023-05-01T11:57:56;92535.72;;;11.72;69.93
65376;BME280;51976;47.332;9.404;2023-05-01T12:00:29;92535.47;;;11.88;69.40
65376;BME280;51976;47.332;9.404;2023-05-01T12:03:06;92539.19;;;12.05;68.19
65376;BME280;51976;47.332;9.404;2023-05-01T12:05:33;92526.09;;;11.66;69.94
65376;BME280;51976;47.332;9.404;2023-05-01T12:08:08;92536.44;;;11.78;69.23
65376;BME280;51976;47.332;9.404;2023-05-01T12:10:34;92533.91;;;12.00;69.46
65376;BME280;51976;47.332;9.404;2023-05-01T12:13:02;92534.81;;;12.09;69.93
65376;BME280;51976;47.332;9.404;2023-05-01T12:15:28;92527.59;;;12.32;69.35
65376;BME280;51976;47.332;9.404;2023-05-01T12:17:55;92538.63;;;12.36;68.61
65376;BME280;51976;47.332;9.404;2023-05-01T12:20:41;92515.41;;;12.21;67.77
65376;BME280;51976;47.332;9.404;2023-05-01T12:23:11;92545.03;;;12.40;65.96
65376;BME280;51976;47.332;9.404;2023-05-01T12:25:38;92541.03;;;12.37;66.07
65376;BME280;51976;47.332;9.404;2023-05-01T12:28:12;92544.44;;;12.43;66.97
65376;BME280;51976;47.332;9.404;2023-05-01T12:30:39;92520.50;;;12.36;66.37
65376;BME280;51976;47.332;9.404;2023-05-01T12:33:15;92517.59;;;12.19;66.65
65376;BME280;51976;47.332;9.404;2023-05-01T12:35:42;92543.41;;;12.11;67.25
65376;BME280;51976;47.332;9.404;2023-05-01T12:38:13;92541.03;;;12.24;66.29
65376;BME280;51976;47.332;9.404;2023-05-01T12:40:48;92533.00;;;12.05;66.72
65376;BME280;51976;47.332;9.404;2023-05-01T12:43:14;92545.22;;;12.02;68.58
65376;BME280;51976;47.332;9.404;2023-05-01T12:45:40;92552.19;;;11.90;67.63
65376;BME280;51976;47.332;9.404;2023-05-01T12:48:11;92547.16;;;11.83;68.11
65376;BME280;51976;47.332;9.404;2023-05-01T12:50:37;92534.47;;;11.83;68.10
65376;BME280;51976;47.332;9.404;2023-05-01T12:53:02;92542.56;;;11.83;68.37
65376;BME280;51976;47.332;9.404;2023-05-01T12:55:28;92525.16;;;11.57;69.31
65376;BME280;51976;47.332;9.404;2023-05-01T12:57:53;92538.19;;;11.88;69.83
65376;BME280;51976;47.332;9.404;2023-05-01T13:00:19;92543.31;;;12.03;70.06
65376;BME280;51976;47.332;9.404;2023-05-01T13:02:45;92539.19;;;12.05;69.55
65376;BME280;51976;47.332;9.404;2023-05-01T13:05:11;92530.69;;;11.98;68.63
65376;BME280;51976;47.332;9.404;2023-05-01T13:07:38;92544.00;;;11.95;68.60
65376;BME280;51976;47.332;9.404;2023-05-01T13:10:04;92542.41;;;12.07;67.70
65376;BME280;51976;47.332;9.404;2023-05-01T13:12:31;92528.88;;;12.07;67.69